sensor_id;sensor_type;location;lat;lon;timestamp;P1;durP1;ratioP1;P2;durP2;ratioP2
67768;SDS011;54569;52.018;5.584;2023-04-25T00:00:32;6.97;;;2.08;;
67768;SDS011;54569;52.018;5.584;2023-04-25T00:02:57;6.70;;;2.30;;
67768;SDS011;54569;52.018;5.584;2023-04-25T00:05:25;12.82;;;3.35;;
67768;SDS011;54569;52.018;5.584;2023-04-25T00:07:51;11.52;;;2.50;;
67768;SDS011;54569;52.018;5.584;2023-04-25T00:10:16;7.13;;;2.45;;
67768;SDS011;54569;52.018;5.584;2023-04-25T00:12:42;8.27;;;2.13;;
67768;SDS011;54569;52.018;5.584;2023-04-25T00:15:08;8.13;;;2.42;;
67768;SDS011;54569;52.018;5.584;2023-04-25T00:17:34;7.00;;;2.90;;
67768;SDS011;54569;52.018;5.584;2023-04-25T00:20:00;9.63;;;2.30;;
67768;SDS011;54569;52.018;5.584;2023-04-25T00:22:30;11.38;;;2.80;;
67768;SDS011;54569;52.018;5.584;2023-04-25T00:24:56;10.20;;;2.58;;
67768;SDS011;54569;52.018;5.584;2023-04-25T00:27:25;9.73;;;3.17;;
67768;SDS011;54569;52.018;5.584;2023-04-25T00:29:51;6.63;;;2.20;;
67768;SDS011;54569;52.018;5.584;2023-04-25T00:32:17;13.25;;;3.30;;
67768;SDS011;54569;52.018;5.584;2023-04-25T00:34:42;7.38;;;2.55;;
67768;SDS011;54569;52.018;5.584;2023-04-25T00:37:08;8.73;;;2.50;;
67768;SDS011;54569;52.018;5.584;2023-04-25T00:39:34;10.63;;;2.78;;
67768;SDS011;54569;52.018;5.584;2023-04-25T00:42:00;9.52;;;2.97;;
67768;SDS011;54569;52.018;5.584;2023-04-25T00:44:26;7.50;;;2.72;;
67768;SDS011;54569;52.018;5.584;2023-04-25T00:46:54;8.20;;;2.97;;
67768;SDS011;54569;52.018;5.584;2023-04-25T00:49:20;10.32;;;2.50;;
67768;SDS011;54569;52.018;5.584;2023-04-25T00:51:46;10.82;;;3.22;;
67768;SDS011;54569;52.018;5.584;2023-04-25T00:54:12;11.85;;;3.00;;
67768;SDS011;54569;52.018;5.584;2023-04-25T00:56:39;10.95;;;3.67;;
67768;SDS011;54569;52.018;5.584;2023-04-25T00:59:05;14.55;;;3.22;;
67768;SDS011;54569;52.018;5.584;2023-04-25T01:01:31;10.02;;;3.55;;
67768;SDS011;54569;52.018;5.584;2023-04-25T01:03:58;8.82;;;3.55;;
67768;SDS011;54569;52.018;5.584;2023-04-25T01:06:24;14.43;;;3.03;;
67768;SDS011;54569;52.018;5.584;2023-04-25T01:08:50;11.63;;;3.20;;
67768;SDS011;54569;52.018;5.584;2023-04-25T01:11:16;13.70;;;3.30;;
67768;SDS011;54569;52.018;5.584;2023-04-25T01:13:42;11.68;;;3.30;;
67768;SDS011;54569;52.018;5.584;2023-04-25T01:16:09;9.80;;;2.88;;
67768;SDS011;54569;52.018;5.584;2023-04-25T01:18:36;13.05;;;3.25;;
67768;SDS011;54569;52.018;5.584;2023-04-25T01:21:09;10.75;;;3.20;;
67768;SDS011;54569;52.018;5.584;2023-04-25T01:23:36;14.88;;;2.80;;
67768;SDS011;54569;52.018;5.584;2023-04-25T01:26:06;8.45;;;2.30;;
67768;SDS011;54569;52.018;5.584;2023-04-25T01:28:33;12.82;;;3.10;;
67768;SDS011;54569;52.018;5.584;2023-04-25T01:31:00;11.27;;;3.03;;
67768;SDS011;54569;52.018;5.584;2023-04-25T01:33:26;11.70;;;3.65;;
67768;SDS011;54569;52.018;5.584;2023-04-25T01:35:52;11.80;;;3.40;;
67768;SDS011;54569;52.018;5.584;2023-04-25T01:38:19;12.63;;;3.20;;
67768;SDS011;54569;52.018;5.584;2023-04-25T01:40:45;7.18;;;2.72;;
67768;SDS011;54569;52.018;5.584;2023-04-25T01:43:14;13.60;;;2.90;;
67768;SDS011;54569;52.018;5.584;2023-04-25T01:45:42;10.55;;;3.22;;
67768;SDS011;54569;52.018;5.584;2023-04-25T01:48:13;8.77;;;2.95;;
67768;SDS011;54569;52.018;5.584;2023-04-25T01:50:39;13.23;;;3.20;;
67768;SDS011;54569;52.018;5.584;2023-04-25T01:53:06;8.80;;;3.15;;
67768;SDS011;54569;52.018;5.584;2023-04-25T01:55:34;7.95;;;2.42;;
67768;SDS011;54569;52.018;5.584;2023-04-25T01:58:05;9.02;;;3.33;;
67768;SDS011;54569;52.018;5.584;2023-04-25T02:00:57;8.00;;;2.50;;
67768;SDS011;54569;52.018;5.584;2023-04-25T02:03:26;11.75;;;3.08;;
67768;SDS011;54569;52.018;5.584;2023-04-25T02:05:52;10.40;;;3.05;;
67768;SDS011;54569;52.018;5.584;2023-04-25T02:08:19;9.75;;;3.10;;
67768;SDS011;54569;52.018;5.584;2023-04-25T02:10:45;7.97;;;2.95;;
67768;SDS011;54569;52.018;5.584;2023-04-25T02:13:17;10.95;;;2.88;;
67768;SDS011;54569;52.018;5.584;2023-04-25T02:16:06;14.68;;;3.05;;
67768;SDS011;54569;52.018;5.584;2023-04-25T02:18:31;8.70;;;2.90;;
67768;SDS011;54569;52.018;5.584;2023-04-25T02:20:59;16.70;;;3.33;;
67768;SDS011;54569;52.018;5.584;2023-04-25T02:23:26;7.75;;;2.72;;
67768;SDS011;54569;52.018;5.584;2023-04-25T02:25:53;12.10;;;3.20;;
67768;SDS011;54569;52.018;5.584;2023-04-25T02:28:20;9.07;;;2.50;;
67768;SDS011;54569;52.018;5.584;2023-04-25T02:30:46;9.77;;;2.72;;
67768;SDS011;54569;52.018;5.584;2023-04-25T02:33:11;15.13;;;2.97;;
67768;SDS011;54569;52.018;5.584;2023-04-25T02:35:37;11.60;;;2.95;;
67768;SDS011;54569;52.018;5.584;2023-04-25T02:38:03;9.68;;;2.63;;
67768;SDS011;54569;52.018;5.584;2023-04-25T02:40:28;8.25;;;2.70;;
67768;SDS011;54569;52.018;5.584;2023-04-25T02:42:54;14.50;;;2.63;;
67768;SDS011;54569;52.018;5.584;2023-04-25T02:45:20;7.55;;;2.55;;
67768;SDS011;54569;52.018;5.584;2023-04-25T02:47:46;9.40;;;2.67;;
67768;SDS011;54569;52.018;5.584;2023-04-25T02:50:12;8.35;;;2.63;;
67768;SDS011;54569;52.018;5.584;2023-04-25T02:52:39;13.90;;;2.78;;
67768;SDS011;54569;52.018;5.584;2023-04-25T02:55:12;6.70;;;2.28;;
67768;SDS011;54569;52.018;5.584;2023-04-25T02:57:39;10.75;;;2.75;;
67768;SDS011;54569;52.018;5.584;2023-04-25T03:00:07;5.47;;;2.50;;
67768;SDS011;54569;52.018;5.584;2023-04-25T03:02:33;7.80;;;2.80;;
67768;SDS011;54569;52.018;5.584;2023-04-25T03:04:59;7.70;;;2.33;;
67768;SDS011;54569;52.018;5.584;2023-04-25T03:07:26;8.25;;;2.22;;
67768;SDS011;54569;52.018;5.584;2023-04-25T03:09:51;16.48;;;2.50;;
67768;SDS011;54569;52.018;5.584;2023-04-25T03:12:17;9.07;;;2.35;;
67768;SDS011;54569;52.018;5.584;2023-04-25T03:14:43;11.65;;;2.65;;
67768;SDS011;54569;52.018;5.584;2023-04-25T03:17:08;9.85;;;2.70;;
67768;SDS011;54569;52.018;5.584;2023-04-25T03:19:35;8.02;;;2.67;;
67768;SDS011;54569;52.018;5.584;2023-04-25T03:22:02;9.30;;;2.65;;
67768;SDS011;54569;52.018;5.584;2023-04-25T03:24:28;11.20;;;2.85;;
67768;SDS011;54569;52.018;5.584;2023-04-25T03:26:54;7.38;;;2.53;;
67768;SDS011;54569;52.018;5.584;2023-04-25T03:29:19;8.32;;;2.65;;
67768;SDS011;54569;52.018;5.584;2023-04-25T03:31:49;9.57;;;2.70;;
67768;SDS011;54569;52.018;5.584;2023-04-25T03:34:15;9.20;;;3.33;;
67768;SDS011;54569;52.018;5.584;2023-04-25T03:36:41;9.80;;;3.22;;
67768;SDS011;54569;52.018;5.584;2023-04-25T03:39:07;10.27;;;2.67;;
67768;SDS011;54569;52.018;5.584;2023-04-25T03:41:33;8.55;;;3.13;;
67768;SDS011;54569;52.018;5.584;2023-04-25T03:44:06;9.77;;;3.00;;
67768;SDS011;54569;52.018;5.584;2023-04-25T03:46:32;10.85;;;3.13;;
67768;SDS011;54569;52.018;5.584;2023-04-25T03:48:58;11.55;;;3.22;;
67768;SDS011;54569;52.018;5.584;2023-04-25T03:51:38;9.15;;;3.10;;
67768;SDS011;54569;52.018;5.584;2023-04-25T03:54:04;8.98;;;2.97;;
67768;SDS011;54569;52.018;5.584;2023-04-25T03:56:29;10.52;;;3.03;;
67768;SDS011;54569;52.018;5.584;2023-04-25T03:59:03;6.53;;;2.97;;
67768;SDS011;54569;52.018;5.584;2023-04-25T04:01:29;10.93;;;3.40;;
67768;SDS011;54569;52.018;5.584;2023-04-25T04:03:56;10.45;;;3.20;;
67768;SDS011;54569;52.018;5.584;2023-04-25T04:06:23;18.10;;;5.78;;
67768;SDS011;54569;52.018;5.584;2023-04-25T04:08:54;9.20;;;2.90;;
67768;SDS011;54569;52.018;5.584;2023-04-25T04:11:20;11.15;;;3.10;;
67768;SDS011;54569;52.018;5.584;2023-04-25T04:13:46;12.75;;;3.25;;
67768;SDS011;54569;52.018;5.584;2023-04-25T04:16:12;10.05;;;2.50;;
67768;SDS011;54569;52.018;5.584;2023-04-25T04:18:38;9.50;;;2.88;;
67768;SDS011;54569;52.018;5.584;2023-04-25T04:21:04;13.35;;;3.20;;
67768;SDS011;54569;52.018;5.584;2023-04-25T04:23:33;10.88;;;2.83;;
67768;SDS011;54569;52.018;5.584;2023-04-25T04:25:59;8.80;;;2.55;;
67768;SDS011;54569;52.018;5.584;2023-04-25T04:28:26;11.65;;;4.10;;
67768;SDS011;54569;52.018;5.584;2023-04-25T04:30:59;9.80;;;2.77;;
67768;SDS011;54569;52.018;5.584;2023-04-25T04:33:26;12.38;;;2.80;;
67768;SDS011;54569;52.018;5.584;2023-04-25T04:35:57;11.48;;;2.90;;
67768;SDS011;54569;52.018;5.584;2023-04-25T04:38:22;8.48;;;2.50;;
67768;SDS011;54569;52.018;5.584;2023-04-25T04:40:50;9.05;;;2.47;;
67768;SDS011;54569;52.018;5.584;2023-04-25T04:43:25;10.30;;;3.03;;
67768;SDS011;54569;52.018;5.584;2023-04-25T04:46:17;7.55;;;2.65;;
67768;SDS011;54569;52.018;5.584;2023-04-25T04:49:15;12.63;;;2.35;;
67768;SDS011;54569;52.018;5.584;2023-04-25T04:52:01;9.98;;;2.65;;
67768;SDS011;54569;52.018;5.584;2023-04-25T04:54:53;7.53;;;2.22;;
67768;SDS011;54569;52.018;5.584;2023-04-25T04:57:39;10.57;;;2.33;;
67768;SDS011;54569;52.018;5.584;2023-04-25T05:00:11;16.00;;;3.40;;
67768;SDS011;54569;52.018;5.584;2023-04-25T05:02:40;7.97;;;2.35;;
67768;SDS011;54569;52.018;5.584;2023-04-25T05:05:26;8.82;;;2.30;;
67768;SDS011;54569;52.018;5.584;2023-04-25T05:07:57;9.23;;;2.90;;
67768;SDS011;54569;52.018;5.584;2023-04-25T05:10:46;7.22;;;2.53;;
67768;SDS011;54569;52.018;5.584;2023-04-25T05:13:22;7.45;;;2.58;;
67768;SDS011;54569;52.018;5.584;2023-04-25T05:16:10;9.75;;;2.47;;
67768;SDS011;54569;52.018;5.584;2023-04-25T05:18:50;11.07;;;2.50;;
67768;SDS011;54569;52.018;5.584;2023-04-25T05:21:41;5.68;;;2.03;;
67768;SDS011;54569;52.018;5.584;2023-04-25T05:24:33;3.28;;;1.92;;
67768;SDS011;54569;52.018;5.584;2023-04-25T05:27:11;6.97;;;2.20;;
67768;SDS011;54569;52.018;5.584;2023-04-25T05:30:04;7.55;;;1.77;;
67768;SDS011;54569;52.018;5.584;2023-04-25T05:32:35;2.50;;;1.75;;
67768;SDS011;54569;52.018;5.584;2023-04-25T05:35:02;7.28;;;2.42;;
67768;SDS011;54569;52.018;5.584;2023-04-25T05:37:33;5.32;;;2.08;;
67768;SDS011;54569;52.018;5.584;2023-04-25T05:40:09;9.23;;;2.35;;
67768;SDS011;54569;52.018;5.584;2023-04-25T05:42:49;8.98;;;2.50;;
67768;SDS011;54569;52.018;5.584;2023-04-25T05:45:44;6.75;;;1.88;;
67768;SDS011;54569;52.018;5.584;2023-04-25T05:48:27;3.30;;;1.65;;
67768;SDS011;54569;52.018;5.584;2023-04-25T05:51:28;5.75;;;2.00;;
67768;SDS011;54569;52.018;5.584;2023-04-25T05:54:12;4.03;;;2.13;;
67768;SDS011;54569;52.018;5.584;2023-04-25T05:56:39;9.05;;;2.45;;
67768;SDS011;54569;52.018;5.584;2023-04-25T05:59:05;7.53;;;2.35;;
67768;SDS011;54569;52.018;5.584;2023-04-25T06:01:31;7.80;;;2.45;;
67768;SDS011;54569;52.018;5.584;2023-04-25T06:03:56;6.97;;;1.73;;
67768;SDS011;54569;52.018;5.584;2023-04-25T06:06:22;9.35;;;2.28;;
67768;SDS011;54569;52.018;5.584;2023-04-25T06:08:48;5.55;;;2.00;;
67768;SDS011;54569;52.018;5.584;2023-04-25T06:11:14;5.55;;;1.77;;
67768;SDS011;54569;52.018;5.584;2023-04-25T06:13:40;4.00;;;1.38;;
67768;SDS011;54569;52.018;5.584;2023-04-25T06:16:06;8.00;;;1.98;;
67768;SDS011;54569;52.018;5.584;2023-04-25T06:18:32;9.32;;;2.13;;
67768;SDS011;54569;52.018;5.584;2023-04-25T06:20:58;9.57;;;2.45;;
67768;SDS011;54569;52.018;5.584;2023-04-25T06:23:24;5.03;;;1.95;;
67768;SDS011;54569;52.018;5.584;2023-04-25T06:25:55;7.20;;;2.17;;
67768;SDS011;54569;52.018;5.584;2023-04-25T06:28:21;5.70;;;1.90;;
67768;SDS011;54569;52.018;5.584;2023-04-25T06:30:48;4.45;;;2.05;;
67768;SDS011;54569;52.018;5.584;2023-04-25T06:33:17;5.13;;;1.90;;
67768;SDS011;54569;52.018;5.584;2023-04-25T06:35:42;6.43;;;2.17;;
67768;SDS011;54569;52.018;5.584;2023-04-25T06:38:11;7.57;;;2.78;;
67768;SDS011;54569;52.018;5.584;2023-04-25T06:40:38;8.63;;;1.90;;
67768;SDS011;54569;52.018;5.584;2023-04-25T06:43:06;8.85;;;2.10;;
67768;SDS011;54569;52.018;5.584;2023-04-25T06:45:53;10.48;;;2.03;;
67768;SDS011;54569;52.018;5.584;2023-04-25T06:48:21;6.63;;;1.92;;
67768;SDS011;54569;52.018;5.584;2023-04-25T06:50:47;6.63;;;1.67;;
67768;SDS011;54569;52.018;5.584;2023-04-25T06:53:12;11.43;;;1.75;;
67768;SDS011;54569;52.018;5.584;2023-04-25T06:55:40;5.43;;;1.80;;
67768;SDS011;54569;52.018;5.584;2023-04-25T06:58:17;9.43;;;2.20;;
67768;SDS011;54569;52.018;5.584;2023-04-25T07:01:06;9.77;;;2.25;;
67768;SDS011;54569;52.018;5.584;2023-04-25T07:03:32;6.80;;;1.88;;
67768;SDS011;54569;52.018;5.584;2023-04-25T07:06:02;5.20;;;1.67;;
67768;SDS011;54569;52.018;5.584;2023-04-25T07:08:29;8.02;;;1.92;;
67768;SDS011;54569;52.018;5.584;2023-04-25T07:10:56;8.10;;;1.88;;
67768;SDS011;54569;52.018;5.584;2023-04-25T07:13:22;8.73;;;1.90;;
67768;SDS011;54569;52.018;5.584;2023-04-25T07:15:48;9.13;;;1.88;;
67768;SDS011;54569;52.018;5.584;2023-04-25T07:18:15;5.85;;;1.50;;
67768;SDS011;54569;52.018;5.584;2023-04-25T07:20:41;4.35;;;1.60;;
67768;SDS011;54569;52.018;5.584;2023-04-25T07:23:06;7.45;;;1.52;;
67768;SDS011;54569;52.018;5.584;2023-04-25T07:25:32;11.60;;;1.80;;
67768;SDS011;54569;52.018;5.584;2023-04-25T07:27:59;6.53;;;1.48;;
67768;SDS011;54569;52.018;5.584;2023-04-25T07:30:25;6.65;;;2.08;;
67768;SDS011;54569;52.018;5.584;2023-04-25T07:32:51;5.07;;;1.92;;
67768;SDS011;54569;52.018;5.584;2023-04-25T07:35:17;9.40;;;2.42;;
67768;SDS011;54569;52.018;5.584;2023-04-25T07:37:43;8.30;;;1.80;;
67768;SDS011;54569;52.018;5.584;2023-04-25T07:40:15;8.93;;;1.98;;
67768;SDS011;54569;52.018;5.584;2023-04-25T07:42:45;7.87;;;2.57;;
67768;SDS011;54569;52.018;5.584;2023-04-25T07:45:15;8.40;;;1.77;;
67768;SDS011;54569;52.018;5.584;2023-04-25T07:47:41;6.30;;;1.40;;
67768;SDS011;54569;52.018;5.584;2023-04-25T07:50:07;6.63;;;1.63;;
67768;SDS011;54569;52.018;5.584;2023-04-25T07:52:33;7.85;;;1.77;;
67768;SDS011;54569;52.018;5.584;2023-04-25T07:55:07;5.30;;;1.37;;
67768;SDS011;54569;52.018;5.584;2023-04-25T07:57:47;6.57;;;1.42;;
67768;SDS011;54569;52.018;5.584;2023-04-25T08:00:13;4.38;;;1.38;;
67768;SDS011;54569;52.018;5.584;2023-04-25T08:02:44;4.88;;;1.90;;
67768;SDS011;54569;52.018;5.584;2023-04-25T08:05:14;4.80;;;1.52;;
67768;SDS011;54569;52.018;5.584;2023-04-25T08:07:43;5.22;;;1.33;;
67768;SDS011;54569;52.018;5.584;2023-04-25T08:10:10;7.85;;;1.48;;
67768;SDS011;54569;52.018;5.584;2023-04-25T08:12:35;4.32;;;1.08;;
67768;SDS011;54569;52.018;5.584;2023-04-25T08:15:03;5.75;;;1.25;;
67768;SDS011;54569;52.018;5.584;2023-04-25T08:17:34;3.28;;;1.25;;
67768;SDS011;54569;52.018;5.584;2023-04-25T08:20:00;5.85;;;2.00;;
67768;SDS011;54569;52.018;5.584;2023-04-25T08:22:29;6.65;;;1.85;;
67768;SDS011;54569;52.018;5.584;2023-04-25T08:25:13;6.30;;;1.30;;
67768;SDS011;54569;52.018;5.584;2023-04-25T08:27:39;7.15;;;1.20;;
67768;SDS011;54569;52.018;5.584;2023-04-25T08:30:05;7.65;;;1.73;;
67768;SDS011;54569;52.018;5.584;2023-04-25T08:32:33;3.38;;;1.30;;
67768;SDS011;54569;52.018;5.584;2023-04-25T08:35:38;2.88;;;1.15;;
67768;SDS011;54569;52.018;5.584;2023-04-25T08:38:05;3.08;;;1.02;;
67768;SDS011;54569;52.018;5.584;2023-04-25T08:40:31;4.22;;;0.98;;
67768;SDS011;54569;52.018;5.584;2023-04-25T08:43:14;7.22;;;1.25;;
67768;SDS011;54569;52.018;5.584;2023-04-25T08:45:41;3.47;;;1.13;;
67768;SDS011;54569;52.018;5.584;2023-04-25T08:48:16;7.40;;;1.52;;
67768;SDS011;54569;52.018;5.584;2023-04-25T08:50:49;5.28;;;1.17;;
67768;SDS011;54569;52.018;5.584;2023-04-25T08:53:16;5.47;;;1.20;;
67768;SDS011;54569;52.018;5.584;2023-04-25T08:55:46;4.20;;;1.40;;
67768;SDS011;54569;52.018;5.584;2023-04-25T08:58:15;3.63;;;1.40;;
67768;SDS011;54569;52.018;5.584;2023-04-25T09:00:41;4.22;;;1.00;;
67768;SDS011;54569;52.018;5.584;2023-04-25T09:03:07;2.85;;;1.10;;
67768;SDS011;54569;52.018;5.584;2023-04-25T09:05:33;4.30;;;1.08;;
67768;SDS011;54569;52.018;5.584;2023-04-25T09:08:00;4.53;;;1.05;;
67768;SDS011;54569;52.018;5.584;2023-04-25T09:10:26;3.22;;;1.40;;
67768;SDS011;54569;52.018;5.584;2023-04-25T09:13:01;2.30;;;1.10;;
67768;SDS011;54569;52.018;5.584;2023-04-25T09:18:54;6.32;;;1.10;;
67768;SDS011;54569;52.018;5.584;2023-04-25T09:21:21;4.15;;;0.85;;
67768;SDS011;54569;52.018;5.584;2023-04-25T09:23:48;4.10;;;0.98;;
67768;SDS011;54569;52.018;5.584;2023-04-25T09:26:19;5.70;;;1.10;;
67768;SDS011;54569;52.018;5.584;2023-04-25T09:28:46;3.47;;;0.95;;
67768;SDS011;54569;52.018;5.584;2023-04-25T09:31:24;2.53;;;0.82;;
67768;SDS011;54569;52.018;5.584;2023-04-25T09:33:58;3.55;;;1.00;;
67768;SDS011;54569;52.018;5.584;2023-04-25T09:36:26;3.90;;;0.90;;
67768;SDS011;54569;52.018;5.584;2023-04-25T09:39:16;6.03;;;1.35;;
67768;SDS011;54569;52.018;5.584;2023-04-25T09:41:53;2.97;;;1.00;;
67768;SDS011;54569;52.018;5.584;2023-04-25T09:44:23;2.22;;;1.00;;
67768;SDS011;54569;52.018;5.584;2023-04-25T09:46:50;3.30;;;1.90;;
67768;SDS011;54569;52.018;5.584;2023-04-25T09:49:20;6.43;;;1.40;;
67768;SDS011;54569;52.018;5.584;2023-04-25T09:52:05;2.72;;;0.90;;
67768;SDS011;54569;52.018;5.584;2023-04-25T09:54:48;7.00;;;1.30;;
67768;SDS011;54569;52.018;5.584;2023-04-25T09:57:21;3.95;;;1.30;;
67768;SDS011;54569;52.018;5.584;2023-04-25T09:59:52;3.95;;;1.23;;
67768;SDS011;54569;52.018;5.584;2023-04-25T10:02:21;3.13;;;1.00;;
67768;SDS011;54569;52.018;5.584;2023-04-25T10:04:51;2.55;;;1.30;;
67768;SDS011;54569;52.018;5.584;2023-04-25T10:07:24;4.72;;;1.08;;
67768;SDS011;54569;52.018;5.584;2023-04-25T10:10:02;3.10;;;1.13;;
67768;SDS011;54569;52.018;5.584;2023-04-25T10:12:29;2.13;;;1.02;;
67768;SDS011;54569;52.018;5.584;2023-04-25T10:14:58;5.13;;;1.23;;
67768;SDS011;54569;52.018;5.584;2023-04-25T10:17:28;3.72;;;1.00;;
67768;SDS011;54569;52.018;5.584;2023-04-25T10:19:54;3.45;;;1.10;;
67768;SDS011;54569;52.018;5.584;2023-04-25T10:22:22;4.38;;;0.88;;
67768;SDS011;54569;52.018;5.584;2023-04-25T10:24:58;4.00;;;1.20;;
67768;SDS011;54569;52.018;5.584;2023-04-25T10:27:24;1.85;;;0.82;;
67768;SDS011;54569;52.018;5.584;2023-04-25T10:30:08;3.15;;;1.02;;
67768;SDS011;54569;52.018;5.584;2023-04-25T10:32:39;4.03;;;1.00;;
67768;SDS011;54569;52.018;5.584;2023-04-25T10:35:26;5.38;;;1.17;;
67768;SDS011;54569;52.018;5.584;2023-04-25T10:40:28;3.75;;;0.88;;
67768;SDS011;54569;52.018;5.584;2023-04-25T10:42:55;3.50;;;0.95;;
67768;SDS011;54569;52.018;5.584;2023-04-25T10:45:21;2.80;;;1.05;;
67768;SDS011;54569;52.018;5.584;2023-04-25T10:47:47;3.80;;;1.15;;
67768;SDS011;54569;52.018;5.584;2023-04-25T10:50:16;5.32;;;1.13;;
67768;SDS011;54569;52.018;5.584;2023-04-25T10:52:42;3.40;;;1.00;;
67768;SDS011;54569;52.018;5.584;2023-04-25T10:55:09;4.65;;;1.17;;
67768;SDS011;54569;52.018;5.584;2023-04-25T11:02:30;4.18;;;0.98;;
67768;SDS011;54569;52.018;5.584;2023-04-25T11:04:56;4.43;;;0.93;;
67768;SDS011;54569;52.018;5.584;2023-04-25T11:10:04;2.47;;;0.93;;
67768;SDS011;54569;52.018;5.584;2023-04-25T11:12:31;4.20;;;1.00;;
67768;SDS011;54569;52.018;5.584;2023-04-25T11:15:03;3.72;;;0.90;;
67768;SDS011;54569;52.018;5.584;2023-04-25T11:17:30;6.20;;;1.23;;
67768;SDS011;54569;52.018;5.584;2023-04-25T11:19:56;4.18;;;1.17;;
67768;SDS011;54569;52.018;5.584;2023-04-25T11:22:22;2.65;;;0.93;;
67768;SDS011;54569;52.018;5.584;2023-04-25T11:24:48;2.53;;;0.90;;
67768;SDS011;54569;52.018;5.584;2023-04-25T11:27:14;3.95;;;1.05;;
67768;SDS011;54569;52.018;5.584;2023-04-25T11:29:40;4.10;;;0.95;;
67768;SDS011;54569;52.018;5.584;2023-04-25T11:32:06;4.35;;;1.30;;
67768;SDS011;54569;52.018;5.584;2023-04-25T11:34:32;3.20;;;0.98;;
67768;SDS011;54569;52.018;5.584;2023-04-25T11:36:58;6.20;;;1.27;;
67768;SDS011;54569;52.018;5.584;2023-04-25T11:39:25;2.80;;;1.20;;
67768;SDS011;54569;52.018;5.584;2023-04-25T11:41:52;6.00;;;1.35;;
67768;SDS011;54569;52.018;5.584;2023-04-25T11:44:18;4.28;;;1.02;;
67768;SDS011;54569;52.018;5.584;2023-04-25T11:46:45;5.13;;;1.40;;
67768;SDS011;54569;52.018;5.584;2023-04-25T11:49:11;2.88;;;0.82;;
67768;SDS011;54569;52.018;5.584;2023-04-25T11:54:06;3.05;;;1.23;;
67768;SDS011;54569;52.018;5.584;2023-04-25T11:56:32;1.70;;;0.70;;
67768;SDS011;54569;52.018;5.584;2023-04-25T11:58:58;3.75;;;1.02;;
67768;SDS011;54569;52.018;5.584;2023-04-25T12:01:35;2.60;;;0.85;;
67768;SDS011;54569;52.018;5.584;2023-04-25T12:04:12;1.95;;;0.95;;
67768;SDS011;54569;52.018;5.584;2023-04-25T12:06:39;1.83;;;0.80;;
67768;SDS011;54569;52.018;5.584;2023-04-25T12:09:07;4.68;;;1.00;;
67768;SDS011;54569;52.018;5.584;2023-04-25T12:11:43;2.70;;;0.98;;
67768;SDS011;54569;52.018;5.584;2023-04-25T12:14:11;2.10;;;1.00;;
67768;SDS011;54569;52.018;5.584;2023-04-25T12:16:45;2.60;;;0.88;;
67768;SDS011;54569;52.018;5.584;2023-04-25T12:19:15;2.90;;;1.15;;
67768;SDS011;54569;52.018;5.584;2023-04-25T12:21:42;5.35;;;1.13;;
67768;SDS011;54569;52.018;5.584;2023-04-25T12:27:00;2.53;;;1.00;;
67768;SDS011;54569;52.018;5.584;2023-04-25T12:29:28;5.80;;;1.30;;
67768;SDS011;54569;52.018;5.584;2023-04-25T12:31:56;2.05;;;1.10;;
67768;SDS011;54569;52.018;5.584;2023-04-25T12:34:23;7.20;;;1.50;;
67768;SDS011;54569;52.018;5.584;2023-04-25T12:36:49;3.25;;;1.48;;
67768;SDS011;54569;52.018;5.584;2023-04-25T12:41:42;5.25;;;1.05;;
67768;SDS011;54569;52.018;5.584;2023-04-25T12:44:09;4.53;;;1.13;;
67768;SDS011;54569;52.018;5.584;2023-04-25T12:46:35;2.97;;;1.15;;
67768;SDS011;54569;52.018;5.584;2023-04-25T12:49:01;3.03;;;1.10;;
67768;SDS011;54569;52.018;5.584;2023-04-25T12:51:28;2.88;;;1.10;;
67768;SDS011;54569;52.018;5.584;2023-04-25T12:53:54;4.45;;;1.20;;
67768;SDS011;54569;52.018;5.584;2023-04-25T12:56:20;3.88;;;0.98;;
67768;SDS011;54569;52.018;5.584;2023-04-25T12:58:45;6.28;;;1.20;;
67768;SDS011;54569;52.018;5.584;2023-04-25T13:01:13;7.40;;;1.70;;
67768;SDS011;54569;52.018;5.584;2023-04-25T13:03:39;3.83;;;1.10;;
67768;SDS011;54569;52.018;5.584;2023-04-25T13:06:06;4.85;;;1.00;;
67768;SDS011;54569;52.018;5.584;2023-04-25T13:08:32;3.58;;;0.85;;
67768;SDS011;54569;52.018;5.584;2023-04-25T13:10:57;2.17;;;1.00;;
67768;SDS011;54569;52.018;5.584;2023-04-25T13:13:23;3.58;;;1.05;;
67768;SDS011;54569;52.018;5.584;2023-04-25T13:15:49;3.60;;;1.17;;
67768;SDS011;54569;52.018;5.584;2023-04-25T13:18:15;3.15;;;1.05;;
67768;SDS011;54569;52.018;5.584;2023-04-25T13:20:40;3.95;;;1.25;;
67768;SDS011;54569;52.018;5.584;2023-04-25T13:23:06;2.65;;;1.10;;
67768;SDS011;54569;52.018;5.584;2023-04-25T13:25:32;3.75;;;1.00;;
67768;SDS011;54569;52.018;5.584;2023-04-25T13:27:57;4.75;;;1.13;;
67768;SDS011;54569;52.018;5.584;2023-04-25T13:30:23;7.85;;;1.20;;
67768;SDS011;54569;52.018;5.584;2023-04-25T13:32:49;3.78;;;0.88;;
67768;SDS011;54569;52.018;5.584;2023-04-25T13:35:14;3.15;;;1.30;;
67768;SDS011;54569;52.018;5.584;2023-04-25T13:37:41;3.90;;;0.90;;
67768;SDS011;54569;52.018;5.584;2023-04-25T13:40:08;4.85;;;0.90;;
67768;SDS011;54569;52.018;5.584;2023-04-25T13:42:36;3.25;;;1.23;;
67768;SDS011;54569;52.018;5.584;2023-04-25T13:45:02;3.80;;;0.90;;
67768;SDS011;54569;52.018;5.584;2023-04-25T13:47:29;3.78;;;1.00;;
67768;SDS011;54569;52.018;5.584;2023-04-25T13:49:55;1.80;;;0.73;;
67768;SDS011;54569;52.018;5.584;2023-04-25T13:52:21;3.78;;;0.90;;
67768;SDS011;54569;52.018;5.584;2023-04-25T13:54:49;6.78;;;1.17;;
67768;SDS011;54569;52.018;5.584;2023-04-25T13:57:14;5.93;;;1.10;;
67768;SDS011;54569;52.018;5.584;2023-04-25T13:59:41;2.20;;;1.10;;
67768;SDS011;54569;52.018;5.584;2023-04-25T14:02:07;3.30;;;1.08;;
67768;SDS011;54569;52.018;5.584;2023-04-25T14:04:33;2.85;;;1.10;;
67768;SDS011;54569;52.018;5.584;2023-04-25T14:06:58;5.10;;;0.98;;
67768;SDS011;54569;52.018;5.584;2023-04-25T14:09:24;2.72;;;0.82;;
67768;SDS011;54569;52.018;5.584;2023-04-25T14:11:52;3.58;;;1.20;;
67768;SDS011;54569;52.018;5.584;2023-04-25T14:14:18;2.30;;;1.35;;
67768;SDS011;54569;52.018;5.584;2023-04-25T14:16:45;2.63;;;1.02;;
67768;SDS011;54569;52.018;5.584;2023-04-25T14:19:13;1.58;;;0.65;;
67768;SDS011;54569;52.018;5.584;2023-04-25T14:21:42;2.75;;;0.80;;
67768;SDS011;54569;52.018;5.584;2023-04-25T14:24:08;1.75;;;0.85;;
67768;SDS011;54569;52.018;5.584;2023-04-25T14:26:36;3.08;;;1.00;;
67768;SDS011;54569;52.018;5.584;2023-04-25T14:29:02;2.85;;;1.10;;
67768;SDS011;54569;52.018;5.584;2023-04-25T14:31:32;3.25;;;1.10;;
67768;SDS011;54569;52.018;5.584;2023-04-25T14:33:58;2.80;;;0.90;;
67768;SDS011;54569;52.018;5.584;2023-04-25T14:36:24;3.25;;;1.00;;
67768;SDS011;54569;52.018;5.584;2023-04-25T14:38:51;6.50;;;1.42;;
67768;SDS011;54569;52.018;5.584;2023-04-25T14:41:17;4.78;;;1.33;;
67768;SDS011;54569;52.018;5.584;2023-04-25T14:43:43;2.38;;;0.90;;
67768;SDS011;54569;52.018;5.584;2023-04-25T14:46:10;6.50;;;1.65;;
67768;SDS011;54569;52.018;5.584;2023-04-25T14:48:36;3.97;;;1.48;;
67768;SDS011;54569;52.018;5.584;2023-04-25T14:51:02;6.72;;;1.30;;
67768;SDS011;54569;52.018;5.584;2023-04-25T14:53:27;5.30;;;1.00;;
67768;SDS011;54569;52.018;5.584;2023-04-25T14:55:54;5.03;;;1.75;;
67768;SDS011;54569;52.018;5.584;2023-04-25T14:58:19;2.90;;;1.10;;
67768;SDS011;54569;52.018;5.584;2023-04-25T15:00:45;3.63;;;1.25;;
67768;SDS011;54569;52.018;5.584;2023-04-25T15:03:12;2.08;;;1.45;;
67768;SDS011;54569;52.018;5.584;2023-04-25T15:05:38;5.45;;;1.13;;
67768;SDS011;54569;52.018;5.584;2023-04-25T15:08:05;4.38;;;1.30;;
67768;SDS011;54569;52.018;5.584;2023-04-25T15:10:31;2.95;;;1.10;;
67768;SDS011;54569;52.018;5.584;2023-04-25T15:12:56;3.25;;;1.02;;
67768;SDS011;54569;52.018;5.584;2023-04-25T15:15:22;2.45;;;0.98;;
67768;SDS011;54569;52.018;5.584;2023-04-25T15:17:48;2.92;;;1.00;;